Flight Track Log - Related Links

Times and Time Zones

All times are in EDT time to prevent confusion due to time zone crossing. See the WJA304 flight status page for this flight to view local times or setup timezone preferences in your user account.

Time Position Orientation Groundspeed Altitude Reporting Facility
EDT Latitude Longitude Course Direction KTS MPH feet Rate Location/Type
Mon 09:08:11 PM 53.2500 -113.5667 96° East 160 184 3,700  Level Edmonton Center
Mon 09:12:11 PM 53.2167 -113.0833 82° East 340 391 14,200 2,820 Climbing Edmonton Center
Mon 09:13:11 PM 53.2333 -112.8833 99° East 370 426 17,800 3,250 Climbing Edmonton Center
Mon 09:14:11 PM 53.2167 -112.7167 80° East 370 426 20,700 2,800 Climbing Edmonton Center
Mon 09:15:11 PM 53.2333 -112.5500 82° East 390 449 23,400 2,500 Climbing Edmonton Center
Mon 09:16:11 PM 53.2500 -112.3500 105° East 410 472 25,700 2,000 Climbing Edmonton Center
Mon 09:17:11 PM 53.2167 -112.1500 111° Southeast 430 495 27,400 1,800 Climbing Edmonton Center
Mon 09:18:11 PM 53.1667 -111.9333 105° East 460 529 29,300 1,850 Climbing Edmonton Center
Mon 09:19:11 PM 53.1333 -111.7333 103° East 470 541 31,100 1,750 Climbing Edmonton Center
Mon 09:20:11 PM 53.1000 -111.5000 113° Southeast 480 552 32,800 1,850 Climbing Edmonton Center
Mon 09:21:11 PM 53.0500 -111.3000 110° East 490 564 34,800 1,900 Climbing Edmonton Center
Mon 09:22:11 PM 53.0000 -111.0667 105° East 480 552 36,600 1,600 Climbing Edmonton Center
Mon 09:23:11 PM 52.9667 -110.8667 112° Southeast 480 552 38,000 1,350 Climbing Edmonton Center
Mon 09:24:11 PM 52.9167 -110.6667 103° East 480 552 39,300 1,200 Climbing Edmonton Center
Mon 09:25:11 PM 52.8833 -110.4333 105° East 480 552 40,400 850 Climbing Edmonton Center
Mon 09:26:11 PM 52.8500 -110.2333 103° East 480 552 41,000 300 Climbing Edmonton Center
Mon 09:27:11 PM 52.8167 -110.0000 112° Southeast 480 552 41,000  Level Edmonton Center
Mon 09:28:11 PM 52.7667 -109.8000 103° East 480 552 41,000  Level Edmonton Center
Mon 09:29:11 PM 52.7333 -109.5667 112° Southeast 480 552 41,000  Level Edmonton Center
Mon 09:30:11 PM 52.6833 -109.3667 105° East 480 552 41,000  Level Edmonton Center
Mon 09:31:11 PM 52.6500 -109.1667 112° Southeast 470 541 41,000  Level Edmonton Center
Mon 09:32:11 PM 52.6000 -108.9667 98° East 470 541 41,000  Level Edmonton Center
Mon 09:33:11 PM 52.5833 -108.7833 109° East 460 529 41,000  Level Edmonton Center
Mon 09:34:11 PM 52.5333 -108.5500 112° Southeast 460 529 41,000  Level Edmonton Center
Mon 09:35:11 PM 52.4833 -108.3500 98° East 450 518 41,000  Level Edmonton Center
Mon 09:36:11 PM 52.4667 -108.1500 112° Southeast 450 518 41,000  Level Edmonton Center
Mon 09:37:11 PM 52.4167 -107.9500 114° Southeast 450 518 41,000  Level Edmonton Center
Mon 09:38:11 PM 52.3667 -107.7667 105° East 450 518 41,000  Level Edmonton Center
Mon 09:39:11 PM 52.3333 -107.5667 105° East 450 518 41,000  Level Edmonton Center
Mon 09:40:11 PM 52.3000 -107.3667 112° Southeast 450 518 41,000  Level Edmonton Center
Mon 09:41:11 PM 52.2500 -107.1667 106° East 450 518 41,000  Level Edmonton Center
Mon 09:42:11 PM 52.2167 -106.9833 112° Southeast 450 518 41,000  Level Edmonton Center
Mon 09:43:11 PM 52.1667 -106.7833 109° East 450 518 41,000  Level Edmonton Center
Mon 09:45:11 PM 52.0833 -106.4000 105° East 460 529 41,000  Level Edmonton Center
Mon 09:46:11 PM 52.0500 -106.2000 104° East 450 518 41,000  Level Edmonton Center
Mon 09:47:11 PM 52.0167 -105.9833 108° East 450 518 41,000  Level Edmonton Center
Mon 09:48:11 PM 51.9833 -105.8167 110° East 450 518 41,000  Level Edmonton Center
Mon 09:49:11 PM 51.9333 -105.6000 105° East 450 518 41,000  Level Edmonton Center
Mon 09:50:11 PM 51.9000 -105.4000 106° East 450 518 41,000  Level Edmonton Center
Mon 09:51:11 PM 51.8667 -105.2167 112° Southeast 450 518 41,000  Level Edmonton Center
Mon 09:52:11 PM 51.8167 -105.0167 106° East 450 518 41,000  Level Edmonton Center
Mon 09:53:11 PM 51.7833 -104.8333 112° Southeast 450 518 41,000  Level Edmonton Center
Mon 09:54:11 PM 51.7333 -104.6333 114° Southeast 450 518 41,000  Level Edmonton Center
Mon 09:55:11 PM 51.6833 -104.4500 110° East 450 518 41,000  Level Edmonton Center
Mon 09:56:11 PM 51.6333 -104.2333 105° East 460 529 41,000  Level Edmonton Center
Mon 09:57:11 PM 51.6000 -104.0333 114° Southeast 460 529 41,000  Level Edmonton Center
Mon 09:58:11 PM 51.5500 -103.8500 106° East 460 529 41,000  Level Edmonton Center
Mon 09:59:11 PM 51.5167 -103.6667 105° East 460 529 41,000  Level Edmonton Center
Mon 10:00:11 PM 51.4833 -103.4667 112° Southeast 460 529 41,000  Level Edmonton Center
Mon 10:01:11 PM 51.4333 -103.2667 112° Southeast 460 529 41,000  Level Edmonton Center
Mon 10:02:11 PM 51.3833 -103.0667 110° East 460 529 41,000  Level Edmonton Center
Mon 10:03:11 PM 51.3333 -102.8500 106° East 460 529 41,000  Level Edmonton Center
Mon 10:04:11 PM 51.3000 -102.6667 113° Southeast 460 529 41,000  Level Edmonton Center
Mon 10:05:11 PM 51.2500 -102.4833 113° Southeast 460 529 41,000  Level Edmonton Center
Mon 10:06:11 PM 51.2000 -102.3000 106° East 460 529 41,000  Level Edmonton Center
Mon 10:07:11 PM 51.1667 -102.1167 104° East 460 529 41,000  Level Edmonton Center
Mon 10:08:11 PM 51.1333 -101.9000 113° Southeast 460 529 41,000  Level Edmonton Center
Mon 10:09:11 PM 51.0833 -101.7167 104° East 460 529 41,000  Level Edmonton Center
Mon 10:10:11 PM 51.0500 -101.5000 120° Southeast 460 529 41,000  Level Edmonton Center
Mon 10:11:11 PM 50.9833 -101.3167 106° East 460 529 41,000  Level Edmonton Center
Mon 10:12:11 PM 50.9500 -101.1333 106° East 460 529 41,000  Level Edmonton Center
Mon 10:13:11 PM 50.9167 -100.9500 107° East 460 529 41,000  Level Edmonton Center
Mon 10:14:30 PM 50.8667 -100.7000 106° East 460 529 41,000  Level Winnipeg Center
Mon 10:15:30 PM 50.8333 -100.5167 113° Southeast 460 529 41,000 -50 Level Winnipeg Center
Mon 10:16:30 PM 50.7833 -100.3333 111° Southeast 460 529 40,900 -550 Descending Winnipeg Center
Mon 10:17:30 PM 50.7333 -100.1333 106° East 460 529 39,900 -1,000 Descending Winnipeg Center
Mon 10:18:30 PM 50.7000 -99.9500 113° Southeast 460 529 38,900 -1,800 Descending Winnipeg Center
Mon 10:19:30 PM 50.6500 -99.7667 113° Southeast 450 518 36,300 -2,450 Descending Winnipeg Center
Mon 10:20:30 PM 50.6000 -99.5833 105° East 450 518 34,000 -2,250 Descending Winnipeg Center
Mon 10:21:30 PM 50.5667 -99.3833 109° East 440 506 31,800 -2,100 Descending Winnipeg Center
Mon 10:22:30 PM 50.5333 -99.2333 107° East 420 483 29,800 -1,950 Descending Winnipeg Center
Mon 10:23:30 PM 50.5000 -99.0667 118° Southeast 400 460 27,900 -1,900 Descending Winnipeg Center
Mon 10:24:30 PM 50.4500 -98.9167 107° East 380 437 26,000 -1,850 Descending Winnipeg Center
Mon 10:25:30 PM 50.4167 -98.7500 111° Southeast 370 426 24,200 -1,800 Descending Winnipeg Center
Mon 10:26:30 PM 50.3833 -98.6167 109° East 350 403 22,400 -1,700 Descending Winnipeg Center
Mon 10:27:30 PM 50.3500 -98.4667 101° East 340 391 20,800 -1,650 Descending Winnipeg Center
Mon 10:28:30 PM 50.3333 -98.3333 111° Southeast 340 391 19,100 -1,750 Descending Winnipeg Center
Mon 10:29:30 PM 50.3000 -98.2000 101° East 320 368 17,300 -1,700 Descending Winnipeg Center
Mon 10:30:30 PM 50.2833 -98.0667 111° Southeast 320 368 15,700 -2,000 Descending Winnipeg Center
Mon 10:31:30 PM 50.2500 -97.9333 147° Southeast 320 368 13,300 -2,000 Descending Winnipeg Center
Mon 10:32:30 PM 50.1667 -97.8500 141° Southeast 340 391 11,700 -1,600 Descending Winnipeg Center
Mon 10:33:30 PM 50.1000 -97.7667 147° Southeast 320 368 10,100 -1,300 Descending Winnipeg Center
Mon 10:34:30 PM 50.0333 -97.7000 133° Southeast 300 345 9,100 -850 Descending Winnipeg Center
Mon 10:35:30 PM 49.9833 -97.6167 154° Southeast 270 311 8,400 -850 Descending Winnipeg Center
Mon 10:36:30 PM 49.9167 -97.5667 162° South 250 288 7,400 -950 Descending Winnipeg Center
Mon 10:37:30 PM 49.8500 -97.5333 154° Southeast 250 288 6,500 -950 Descending Winnipeg Center
Mon 10:38:30 PM 49.7833 -97.4833 147° Southeast 250 288 5,500 -900 Descending Winnipeg Center
Mon 10:39:30 PM 49.7333 -97.4333 133° Southeast 250 288 4,700 -700 Descending Winnipeg Center
Mon 10:40:30 PM 49.6833 -97.3500 69° East 230 265 4,100 -350 Descending Winnipeg Center
Mon 10:41:30 PM 49.7000 -97.2833 360° North 210 242 4,000 -300 Descending Winnipeg Center
Mon 10:42:30 PM 49.7333 -97.2833 33° Northeast 160 184 3,500 -550 Descending Winnipeg Center
Mon 10:43:30 PM 49.7667 -97.2500 360° North 130 150 2,900 -650 Descending Winnipeg Center
Mon 10:44:30 PM 49.8167 -97.2500 360° North 120 138 2,200 -650 Descending Winnipeg Center
Mon 10:45:30 PM 49.8333 -97.2500 12° North 120 138 1,600 -650 Descending Winnipeg Center
Mon 10:46:30 PM 49.8833 -97.2333 12° North 120 138 900 -700 Descending Winnipeg Center

Login

Don't have an account? Register now (free) for customized features, flight alerts, and more!